sensor_id;sensor_type;location;lat;lon;timestamp;P1;durP1;ratioP1;P2;durP2;ratioP2
59054;SDS011;44845;51.444;7.460;2023-04-25T00:00:53;16.52;;;3.88;;
59054;SDS011;44845;51.444;7.460;2023-04-25T00:03:18;13.35;;;3.60;;
59054;SDS011;44845;51.444;7.460;2023-04-25T00:05:46;9.20;;;3.90;;
59054;SDS011;44845;51.444;7.460;2023-04-25T00:08:11;12.20;;;3.80;;
59054;SDS011;44845;51.444;7.460;2023-04-25T00:10:36;13.02;;;4.18;;
59054;SDS011;44845;51.444;7.460;2023-04-25T00:13:02;11.05;;;3.83;;
59054;SDS011;44845;51.444;7.460;2023-04-25T00:15:27;10.10;;;3.72;;
59054;SDS011;44845;51.444;7.460;2023-04-25T00:17:55;10.13;;;3.88;;
59054;SDS011;44845;51.444;7.460;2023-04-25T00:20:21;10.73;;;4.13;;
59054;SDS011;44845;51.444;7.460;2023-04-25T00:22:48;12.52;;;4.07;;
59054;SDS011;44845;51.444;7.460;2023-04-25T00:25:14;8.73;;;4.22;;
59054;SDS011;44845;51.444;7.460;2023-04-25T00:27:39;12.35;;;4.70;;
59054;SDS011;44845;51.444;7.460;2023-04-25T00:30:04;9.80;;;3.85;;
59054;SDS011;44845;51.444;7.460;2023-04-25T00:32:30;9.18;;;3.90;;
59054;SDS011;44845;51.444;7.460;2023-04-25T00:34:56;13.30;;;4.53;;
59054;SDS011;44845;51.444;7.460;2023-04-25T00:37:22;9.57;;;4.38;;
59054;SDS011;44845;51.444;7.460;2023-04-25T00:39:48;9.48;;;4.28;;
59054;SDS011;44845;51.444;7.460;2023-04-25T00:42:13;10.07;;;4.63;;
59054;SDS011;44845;51.444;7.460;2023-04-25T00:44:38;11.05;;;5.20;;
59054;SDS011;44845;51.444;7.460;2023-04-25T00:47:04;12.75;;;5.63;;
59054;SDS011;44845;51.444;7.460;2023-04-25T00:49:30;9.88;;;4.75;;
59054;SDS011;44845;51.444;7.460;2023-04-25T00:51:55;17.10;;;5.88;;
59054;SDS011;44845;51.444;7.460;2023-04-25T00:54:21;10.55;;;5.53;;
59054;SDS011;44845;51.444;7.460;2023-04-25T00:56:47;13.80;;;5.15;;
59054;SDS011;44845;51.444;7.460;2023-04-25T00:59:12;13.68;;;6.10;;
59054;SDS011;44845;51.444;7.460;2023-04-25T01:01:38;12.73;;;5.70;;
59054;SDS011;44845;51.444;7.460;2023-04-25T01:04:04;13.20;;;5.40;;
59054;SDS011;44845;51.444;7.460;2023-04-25T01:06:30;15.70;;;5.60;;
59054;SDS011;44845;51.444;7.460;2023-04-25T01:08:56;11.88;;;5.57;;
59054;SDS011;44845;51.444;7.460;2023-04-25T01:11:22;12.05;;;5.25;;
59054;SDS011;44845;51.444;7.460;2023-04-25T01:13:48;14.60;;;5.57;;
59054;SDS011;44845;51.444;7.460;2023-04-25T01:16:13;12.00;;;5.18;;
59054;SDS011;44845;51.444;7.460;2023-04-25T01:18:39;14.88;;;5.57;;
59054;SDS011;44845;51.444;7.460;2023-04-25T01:21:09;12.77;;;5.28;;
59054;SDS011;44845;51.444;7.460;2023-04-25T01:23:36;10.48;;;4.80;;
59054;SDS011;44845;51.444;7.460;2023-04-25T01:26:03;11.77;;;5.63;;
59054;SDS011;44845;51.444;7.460;2023-04-25T01:28:28;13.18;;;5.95;;
59054;SDS011;44845;51.444;7.460;2023-04-25T01:30:54;14.63;;;5.65;;
59054;SDS011;44845;51.444;7.460;2023-04-25T01:33:21;13.82;;;6.38;;
59054;SDS011;44845;51.444;7.460;2023-04-25T01:35:46;15.95;;;5.88;;
59054;SDS011;44845;51.444;7.460;2023-04-25T01:38:12;12.98;;;6.05;;
59054;SDS011;44845;51.444;7.460;2023-04-25T01:40:38;13.70;;;5.72;;
59054;SDS011;44845;51.444;7.460;2023-04-25T01:43:05;10.10;;;6.05;;
59054;SDS011;44845;51.444;7.460;2023-04-25T01:45:30;15.35;;;6.60;;
59054;SDS011;44845;51.444;7.460;2023-04-25T01:47:56;12.35;;;6.95;;
59054;SDS011;44845;51.444;7.460;2023-04-25T01:50:24;12.80;;;6.47;;
59054;SDS011;44845;51.444;7.460;2023-04-25T01:52:50;12.65;;;6.60;;
59054;SDS011;44845;51.444;7.460;2023-04-25T01:55:16;10.70;;;6.47;;
59054;SDS011;44845;51.444;7.460;2023-04-25T01:57:41;12.82;;;6.50;;
59054;SDS011;44845;51.444;7.460;2023-04-25T02:00:07;13.20;;;6.90;;
59054;SDS011;44845;51.444;7.460;2023-04-25T02:02:34;12.77;;;7.22;;
59054;SDS011;44845;51.444;7.460;2023-04-25T02:05:00;13.75;;;7.38;;
59054;SDS011;44845;51.444;7.460;2023-04-25T02:07:26;14.50;;;6.93;;
59054;SDS011;44845;51.444;7.460;2023-04-25T02:09:51;14.93;;;7.07;;
59054;SDS011;44845;51.444;7.460;2023-04-25T02:12:17;13.60;;;6.97;;
59054;SDS011;44845;51.444;7.460;2023-04-25T02:14:42;15.48;;;6.95;;
59054;SDS011;44845;51.444;7.460;2023-04-25T02:17:08;15.05;;;6.72;;
59054;SDS011;44845;51.444;7.460;2023-04-25T02:19:33;16.48;;;8.32;;
59054;SDS011;44845;51.444;7.460;2023-04-25T02:21:58;13.73;;;7.13;;
59054;SDS011;44845;51.444;7.460;2023-04-25T02:24:24;12.10;;;6.88;;
59054;SDS011;44845;51.444;7.460;2023-04-25T02:26:50;12.20;;;6.78;;
59054;SDS011;44845;51.444;7.460;2023-04-25T02:29:15;15.18;;;6.72;;
59054;SDS011;44845;51.444;7.460;2023-04-25T02:31:41;11.35;;;6.32;;
59054;SDS011;44845;51.444;7.460;2023-04-25T02:34:07;12.88;;;6.55;;
59054;SDS011;44845;51.444;7.460;2023-04-25T02:36:32;17.83;;;7.68;;
59054;SDS011;44845;51.444;7.460;2023-04-25T02:38:59;13.10;;;7.40;;
59054;SDS011;44845;51.444;7.460;2023-04-25T02:41:25;14.68;;;7.22;;
59054;SDS011;44845;51.444;7.460;2023-04-25T02:43:51;13.70;;;7.53;;
59054;SDS011;44845;51.444;7.460;2023-04-25T02:46:16;16.80;;;8.95;;
59054;SDS011;44845;51.444;7.460;2023-04-25T02:48:41;15.85;;;8.52;;
59054;SDS011;44845;51.444;7.460;2023-04-25T02:51:07;20.48;;;9.43;;
59054;SDS011;44845;51.444;7.460;2023-04-25T02:53:32;15.73;;;8.70;;
59054;SDS011;44845;51.444;7.460;2023-04-25T02:55:57;14.10;;;8.50;;
59054;SDS011;44845;51.444;7.460;2023-04-25T02:58:24;15.77;;;8.68;;
59054;SDS011;44845;51.444;7.460;2023-04-25T03:00:49;17.02;;;8.57;;
59054;SDS011;44845;51.444;7.460;2023-04-25T03:03:14;14.23;;;8.20;;
59054;SDS011;44845;51.444;7.460;2023-04-25T03:05:42;14.27;;;8.10;;
59054;SDS011;44845;51.444;7.460;2023-04-25T03:08:08;13.00;;;8.15;;
59054;SDS011;44845;51.444;7.460;2023-04-25T03:10:33;11.30;;;8.07;;
59054;SDS011;44845;51.444;7.460;2023-04-25T03:12:59;14.00;;;7.57;;
59054;SDS011;44845;51.444;7.460;2023-04-25T03:15:24;12.68;;;7.32;;
59054;SDS011;44845;51.444;7.460;2023-04-25T03:17:49;17.17;;;8.23;;
59054;SDS011;44845;51.444;7.460;2023-04-25T03:20:15;18.42;;;8.40;;
59054;SDS011;44845;51.444;7.460;2023-04-25T03:22:40;13.52;;;7.97;;
59054;SDS011;44845;51.444;7.460;2023-04-25T03:25:06;14.93;;;7.72;;
59054;SDS011;44845;51.444;7.460;2023-04-25T03:27:32;17.67;;;7.93;;
59054;SDS011;44845;51.444;7.460;2023-04-25T03:29:57;17.23;;;8.38;;
59054;SDS011;44845;51.444;7.460;2023-04-25T03:32:22;13.88;;;7.93;;
59054;SDS011;44845;51.444;7.460;2023-04-25T03:34:48;12.45;;;7.95;;
59054;SDS011;44845;51.444;7.460;2023-04-25T03:37:13;17.02;;;7.70;;
59054;SDS011;44845;51.444;7.460;2023-04-25T03:39:38;15.18;;;7.20;;
59054;SDS011;44845;51.444;7.460;2023-04-25T03:42:04;14.93;;;6.35;;
59054;SDS011;44845;51.444;7.460;2023-04-25T03:44:29;19.08;;;6.78;;
59054;SDS011;44845;51.444;7.460;2023-04-25T03:46:55;16.83;;;6.50;;
59054;SDS011;44845;51.444;7.460;2023-04-25T03:49:20;15.50;;;5.97;;
59054;SDS011;44845;51.444;7.460;2023-04-25T03:51:45;16.08;;;6.07;;
59054;SDS011;44845;51.444;7.460;2023-04-25T03:54:11;15.82;;;6.47;;
59054;SDS011;44845;51.444;7.460;2023-04-25T03:56:36;13.02;;;5.90;;
59054;SDS011;44845;51.444;7.460;2023-04-25T03:59:01;13.80;;;5.95;;
59054;SDS011;44845;51.444;7.460;2023-04-25T04:01:27;13.80;;;5.85;;
59054;SDS011;44845;51.444;7.460;2023-04-25T04:03:52;17.50;;;6.18;;
59054;SDS011;44845;51.444;7.460;2023-04-25T04:06:17;11.57;;;5.15;;
59054;SDS011;44845;51.444;7.460;2023-04-25T04:08:43;12.45;;;6.03;;
59054;SDS011;44845;51.444;7.460;2023-04-25T04:11:09;12.52;;;5.65;;
59054;SDS011;44845;51.444;7.460;2023-04-25T04:13:34;14.27;;;5.55;;
59054;SDS011;44845;51.444;7.460;2023-04-25T04:15:59;13.85;;;6.28;;
59054;SDS011;44845;51.444;7.460;2023-04-25T04:18:25;13.80;;;5.50;;
59054;SDS011;44845;51.444;7.460;2023-04-25T04:20:50;17.80;;;6.30;;
59054;SDS011;44845;51.444;7.460;2023-04-25T04:23:15;20.38;;;6.82;;
59054;SDS011;44845;51.444;7.460;2023-04-25T04:25:41;14.60;;;6.30;;
59054;SDS011;44845;51.444;7.460;2023-04-25T04:28:06;13.38;;;4.88;;
59054;SDS011;44845;51.444;7.460;2023-04-25T04:30:32;3.10;;;2.08;;
59054;SDS011;44845;51.444;7.460;2023-04-25T04:32:58;6.43;;;2.60;;
59054;SDS011;44845;51.444;7.460;2023-04-25T04:35:23;3.42;;;1.65;;
59054;SDS011;44845;51.444;7.460;2023-04-25T04:37:49;2.20;;;1.20;;
59054;SDS011;44845;51.444;7.460;2023-04-25T04:40:15;2.05;;;1.20;;
59054;SDS011;44845;51.444;7.460;2023-04-25T04:42:43;2.58;;;1.30;;
59054;SDS011;44845;51.444;7.460;2023-04-25T04:45:10;6.35;;;1.42;;
59054;SDS011;44845;51.444;7.460;2023-04-25T04:47:37;1.77;;;1.17;;
59054;SDS011;44845;51.444;7.460;2023-04-25T04:50:04;4.03;;;1.20;;
59054;SDS011;44845;51.444;7.460;2023-04-25T04:52:34;5.07;;;1.35;;
59054;SDS011;44845;51.444;7.460;2023-04-25T04:55:01;2.13;;;1.13;;
59054;SDS011;44845;51.444;7.460;2023-04-25T04:57:27;3.83;;;1.40;;
59054;SDS011;44845;51.444;7.460;2023-04-25T04:59:53;2.92;;;1.48;;
59054;SDS011;44845;51.444;7.460;2023-04-25T05:02:18;2.95;;;1.70;;
59054;SDS011;44845;51.444;7.460;2023-04-25T05:04:44;4.68;;;1.95;;
59054;SDS011;44845;51.444;7.460;2023-04-25T05:07:10;6.40;;;1.95;;
59054;SDS011;44845;51.444;7.460;2023-04-25T05:09:35;7.80;;;2.20;;
59054;SDS011;44845;51.444;7.460;2023-04-25T05:12:00;5.43;;;2.00;;
59054;SDS011;44845;51.444;7.460;2023-04-25T05:14:26;7.95;;;2.30;;
59054;SDS011;44845;51.444;7.460;2023-04-25T05:16:51;5.13;;;1.98;;
59054;SDS011;44845;51.444;7.460;2023-04-25T05:19:16;5.53;;;2.22;;
59054;SDS011;44845;51.444;7.460;2023-04-25T05:21:42;4.45;;;2.05;;
59054;SDS011;44845;51.444;7.460;2023-04-25T05:24:08;8.98;;;2.25;;
59054;SDS011;44845;51.444;7.460;2023-04-25T05:26:33;9.82;;;2.67;;
59054;SDS011;44845;51.444;7.460;2023-04-25T05:28:59;6.50;;;2.17;;
59054;SDS011;44845;51.444;7.460;2023-04-25T05:31:24;7.45;;;2.30;;
59054;SDS011;44845;51.444;7.460;2023-04-25T05:33:50;6.15;;;2.55;;
59054;SDS011;44845;51.444;7.460;2023-04-25T05:36:16;7.63;;;2.55;;
59054;SDS011;44845;51.444;7.460;2023-04-25T05:38:41;11.00;;;3.35;;
59054;SDS011;44845;51.444;7.460;2023-04-25T05:41:07;5.68;;;2.60;;
59054;SDS011;44845;51.444;7.460;2023-04-25T05:43:32;8.48;;;2.80;;
59054;SDS011;44845;51.444;7.460;2023-04-25T05:45:57;10.73;;;3.05;;
59054;SDS011;44845;51.444;7.460;2023-04-25T05:48:23;13.80;;;3.25;;
59054;SDS011;44845;51.444;7.460;2023-04-25T05:50:48;10.15;;;3.72;;
59054;SDS011;44845;51.444;7.460;2023-04-25T05:53:13;10.35;;;3.55;;
59054;SDS011;44845;51.444;7.460;2023-04-25T05:55:39;12.05;;;3.90;;
59054;SDS011;44845;51.444;7.460;2023-04-25T05:58:05;14.52;;;3.88;;
59054;SDS011;44845;51.444;7.460;2023-04-25T06:00:31;14.18;;;3.10;;
59054;SDS011;44845;51.444;7.460;2023-04-25T06:02:57;9.60;;;3.72;;
59054;SDS011;44845;51.444;7.460;2023-04-25T06:05:22;10.98;;;3.95;;
59054;SDS011;44845;51.444;7.460;2023-04-25T06:07:47;12.32;;;4.28;;
59054;SDS011;44845;51.444;7.460;2023-04-25T06:10:13;12.07;;;4.18;;
59054;SDS011;44845;51.444;7.460;2023-04-25T06:12:38;15.60;;;4.88;;
59054;SDS011;44845;51.444;7.460;2023-04-25T06:15:04;18.58;;;4.65;;
59054;SDS011;44845;51.444;7.460;2023-04-25T06:17:30;13.93;;;5.32;;
59054;SDS011;44845;51.444;7.460;2023-04-25T06:19:56;10.55;;;4.88;;
59054;SDS011;44845;51.444;7.460;2023-04-25T06:22:21;15.25;;;5.53;;
59054;SDS011;44845;51.444;7.460;2023-04-25T06:24:46;15.20;;;5.22;;
59054;SDS011;44845;51.444;7.460;2023-04-25T06:27:12;14.05;;;5.55;;
59054;SDS011;44845;51.444;7.460;2023-04-25T06:29:37;13.20;;;5.90;;
59054;SDS011;44845;51.444;7.460;2023-04-25T06:32:02;12.73;;;5.13;;
59054;SDS011;44845;51.444;7.460;2023-04-25T06:34:28;15.23;;;5.55;;
59054;SDS011;44845;51.444;7.460;2023-04-25T06:36:53;15.93;;;5.65;;
59054;SDS011;44845;51.444;7.460;2023-04-25T06:39:18;13.52;;;5.50;;
59054;SDS011;44845;51.444;7.460;2023-04-25T06:41:45;18.92;;;5.15;;
59054;SDS011;44845;51.444;7.460;2023-04-25T06:44:10;15.38;;;5.68;;
59054;SDS011;44845;51.444;7.460;2023-04-25T06:46:35;13.07;;;5.78;;
59054;SDS011;44845;51.444;7.460;2023-04-25T06:49:02;16.10;;;5.97;;
59054;SDS011;44845;51.444;7.460;2023-04-25T06:51:27;19.77;;;6.13;;
59054;SDS011;44845;51.444;7.460;2023-04-25T06:53:54;13.98;;;5.90;;
59054;SDS011;44845;51.444;7.460;2023-04-25T06:56:19;21.08;;;6.25;;
59054;SDS011;44845;51.444;7.460;2023-04-25T06:58:46;19.50;;;6.55;;
59054;SDS011;44845;51.444;7.460;2023-04-25T07:01:12;15.68;;;5.85;;
59054;SDS011;44845;51.444;7.460;2023-04-25T07:03:38;15.48;;;5.40;;
59054;SDS011;44845;51.444;7.460;2023-04-25T07:06:03;17.00;;;6.18;;
59054;SDS011;44845;51.444;7.460;2023-04-25T07:08:29;15.15;;;5.47;;
59054;SDS011;44845;51.444;7.460;2023-04-25T07:10:54;18.08;;;4.65;;
59054;SDS011;44845;51.444;7.460;2023-04-25T07:13:20;14.80;;;4.57;;
59054;SDS011;44845;51.444;7.460;2023-04-25T07:15:45;12.63;;;3.53;;
59054;SDS011;44845;51.444;7.460;2023-04-25T07:18:12;11.13;;;3.33;;
59054;SDS011;44845;51.444;7.460;2023-04-25T07:20:37;19.02;;;3.78;;
59054;SDS011;44845;51.444;7.460;2023-04-25T07:23:03;12.95;;;3.25;;
59054;SDS011;44845;51.444;7.460;2023-04-25T07:25:28;14.32;;;3.17;;
59054;SDS011;44845;51.444;7.460;2023-04-25T07:27:53;18.15;;;3.25;;
59054;SDS011;44845;51.444;7.460;2023-04-25T07:30:19;19.48;;;2.40;;
59054;SDS011;44845;51.444;7.460;2023-04-25T07:32:44;13.85;;;2.22;;
59054;SDS011;44845;51.444;7.460;2023-04-25T07:35:10;12.02;;;2.63;;
59054;SDS011;44845;51.444;7.460;2023-04-25T07:37:35;16.77;;;2.58;;
59054;SDS011;44845;51.444;7.460;2023-04-25T07:40:02;12.95;;;3.10;;
59054;SDS011;44845;51.444;7.460;2023-04-25T07:42:28;14.15;;;2.33;;
59054;SDS011;44845;51.444;7.460;2023-04-25T07:44:54;11.77;;;2.45;;
59054;SDS011;44845;51.444;7.460;2023-04-25T07:47:19;19.52;;;2.78;;
59054;SDS011;44845;51.444;7.460;2023-04-25T07:49:45;14.15;;;2.88;;
59054;SDS011;44845;51.444;7.460;2023-04-25T07:52:10;9.02;;;2.75;;
59054;SDS011;44845;51.444;7.460;2023-04-25T07:54:36;12.98;;;2.92;;
59054;SDS011;44845;51.444;7.460;2023-04-25T07:57:01;14.95;;;2.97;;
59054;SDS011;44845;51.444;7.460;2023-04-25T07:59:27;12.13;;;3.08;;
59054;SDS011;44845;51.444;7.460;2023-04-25T08:01:52;15.55;;;2.58;;
59054;SDS011;44845;51.444;7.460;2023-04-25T08:04:18;12.13;;;2.65;;
59054;SDS011;44845;51.444;7.460;2023-04-25T08:06:43;14.43;;;2.78;;
59054;SDS011;44845;51.444;7.460;2023-04-25T08:09:09;13.43;;;2.45;;
59054;SDS011;44845;51.444;7.460;2023-04-25T08:11:34;11.38;;;2.60;;
59054;SDS011;44845;51.444;7.460;2023-04-25T08:14:00;10.95;;;2.72;;
59054;SDS011;44845;51.444;7.460;2023-04-25T08:16:26;14.75;;;3.10;;
59054;SDS011;44845;51.444;7.460;2023-04-25T08:18:52;11.02;;;2.30;;
59054;SDS011;44845;51.444;7.460;2023-04-25T08:21:17;16.02;;;2.85;;
59054;SDS011;44845;51.444;7.460;2023-04-25T08:23:42;12.20;;;3.08;;
59054;SDS011;44845;51.444;7.460;2023-04-25T08:26:08;12.63;;;2.10;;
59054;SDS011;44845;51.444;7.460;2023-04-25T08:28:33;11.55;;;2.25;;
59054;SDS011;44845;51.444;7.460;2023-04-25T08:30:59;13.68;;;2.63;;
59054;SDS011;44845;51.444;7.460;2023-04-25T08:33:24;11.60;;;2.22;;
59054;SDS011;44845;51.444;7.460;2023-04-25T08:35:50;14.20;;;2.97;;
59054;SDS011;44845;51.444;7.460;2023-04-25T08:38:15;8.98;;;2.22;;
59054;SDS011;44845;51.444;7.460;2023-04-25T08:40:41;14.10;;;2.35;;
59054;SDS011;44845;51.444;7.460;2023-04-25T08:43:08;17.73;;;2.13;;
59054;SDS011;44845;51.444;7.460;2023-04-25T08:45:36;6.13;;;2.03;;
59054;SDS011;44845;51.444;7.460;2023-04-25T08:48:04;9.48;;;2.35;;
59054;SDS011;44845;51.444;7.460;2023-04-25T08:50:32;9.13;;;2.33;;
59054;SDS011;44845;51.444;7.460;2023-04-25T08:52:58;10.27;;;2.28;;
59054;SDS011;44845;51.444;7.460;2023-04-25T08:55:28;9.80;;;1.92;;
59054;SDS011;44845;51.444;7.460;2023-04-25T08:57:55;9.23;;;2.03;;
59054;SDS011;44845;51.444;7.460;2023-04-25T09:00:21;7.05;;;1.80;;
59054;SDS011;44845;51.444;7.460;2023-04-25T09:02:47;9.73;;;1.95;;
59054;SDS011;44845;51.444;7.460;2023-04-25T09:05:13;8.90;;;1.77;;
59054;SDS011;44845;51.444;7.460;2023-04-25T09:07:39;7.65;;;1.75;;
59054;SDS011;44845;51.444;7.460;2023-04-25T09:10:04;11.52;;;1.77;;
59054;SDS011;44845;51.444;7.460;2023-04-25T09:12:30;8.07;;;1.88;;
59054;SDS011;44845;51.444;7.460;2023-04-25T09:15:02;9.57;;;2.20;;
59054;SDS011;44845;51.444;7.460;2023-04-25T09:17:30;10.23;;;1.58;;
59054;SDS011;44845;51.444;7.460;2023-04-25T09:19:55;7.80;;;1.45;;
59054;SDS011;44845;51.444;7.460;2023-04-25T09:22:30;8.48;;;1.50;;
59054;SDS011;44845;51.444;7.460;2023-04-25T09:24:55;7.45;;;1.17;;
59054;SDS011;44845;51.444;7.460;2023-04-25T09:27:21;6.68;;;1.38;;
59054;SDS011;44845;51.444;7.460;2023-04-25T09:29:56;7.65;;;1.40;;
59054;SDS011;44845;51.444;7.460;2023-04-25T09:32:24;8.20;;;1.60;;
59054;SDS011;44845;51.444;7.460;2023-04-25T09:34:51;4.20;;;1.20;;
59054;SDS011;44845;51.444;7.460;2023-04-25T09:37:18;11.88;;;1.75;;
59054;SDS011;44845;51.444;7.460;2023-04-25T09:39:55;5.43;;;1.30;;
59054;SDS011;44845;51.444;7.460;2023-04-25T09:42:22;8.48;;;1.42;;
59054;SDS011;44845;51.444;7.460;2023-04-25T09:44:49;6.75;;;1.30;;
59054;SDS011;44845;51.444;7.460;2023-04-25T09:47:17;6.55;;;1.60;;
59054;SDS011;44845;51.444;7.460;2023-04-25T09:49:43;7.43;;;1.60;;
59054;SDS011;44845;51.444;7.460;2023-04-25T09:52:09;4.55;;;1.70;;
59054;SDS011;44845;51.444;7.460;2023-04-25T09:54:39;7.63;;;1.52;;
59054;SDS011;44845;51.444;7.460;2023-04-25T09:57:15;5.07;;;1.40;;
59054;SDS011;44845;51.444;7.460;2023-04-25T09:59:48;6.80;;;1.75;;
59054;SDS011;44845;51.444;7.460;2023-04-25T10:02:15;7.28;;;1.67;;
59054;SDS011;44845;51.444;7.460;2023-04-25T10:04:44;9.70;;;1.92;;
59054;SDS011;44845;51.444;7.460;2023-04-25T10:07:13;8.18;;;1.40;;
59054;SDS011;44845;51.444;7.460;2023-04-25T10:09:39;9.15;;;1.48;;
59054;SDS011;44845;51.444;7.460;2023-04-25T10:12:05;6.68;;;1.42;;
59054;SDS011;44845;51.444;7.460;2023-04-25T10:14:32;6.45;;;1.08;;
59054;SDS011;44845;51.444;7.460;2023-04-25T10:16:58;8.25;;;1.40;;
59054;SDS011;44845;51.444;7.460;2023-04-25T10:19:25;6.32;;;1.15;;
59054;SDS011;44845;51.444;7.460;2023-04-25T10:22:03;8.85;;;1.20;;
59054;SDS011;44845;51.444;7.460;2023-04-25T10:24:32;5.70;;;1.10;;
59054;SDS011;44845;51.444;7.460;2023-04-25T10:27:00;10.48;;;1.30;;
59054;SDS011;44845;51.444;7.460;2023-04-25T10:29:26;7.53;;;1.15;;
59054;SDS011;44845;51.444;7.460;2023-04-25T10:31:52;6.75;;;1.48;;
59054;SDS011;44845;51.444;7.460;2023-04-25T10:34:18;5.38;;;1.13;;
59054;SDS011;44845;51.444;7.460;2023-04-25T10:36:50;5.57;;;0.90;;
59054;SDS011;44845;51.444;7.460;2023-04-25T10:39:23;5.68;;;0.98;;
59054;SDS011;44845;51.444;7.460;2023-04-25T10:42:01;5.72;;;1.48;;
59054;SDS011;44845;51.444;7.460;2023-04-25T10:44:30;6.95;;;0.80;;
59054;SDS011;44845;51.444;7.460;2023-04-25T10:46:56;4.45;;;1.02;;
59054;SDS011;44845;51.444;7.460;2023-04-25T10:49:33;3.22;;;0.90;;
59054;SDS011;44845;51.444;7.460;2023-04-25T10:52:12;9.13;;;0.95;;
59054;SDS011;44845;51.444;7.460;2023-04-25T10:54:54;5.30;;;0.90;;
59054;SDS011;44845;51.444;7.460;2023-04-25T10:57:25;3.25;;;0.82;;
59054;SDS011;44845;51.444;7.460;2023-04-25T11:00:11;3.47;;;0.95;;
59054;SDS011;44845;51.444;7.460;2023-04-25T11:02:45;4.78;;;1.13;;
59054;SDS011;44845;51.444;7.460;2023-04-25T11:10:29;5.68;;;1.35;;
59054;SDS011;44845;51.444;7.460;2023-04-25T11:12:57;2.50;;;0.95;;
59054;SDS011;44845;51.444;7.460;2023-04-25T11:15:23;3.60;;;1.10;;
59054;SDS011;44845;51.444;7.460;2023-04-25T11:17:50;7.43;;;1.25;;
59054;SDS011;44845;51.444;7.460;2023-04-25T11:20:16;5.07;;;1.05;;
59054;SDS011;44845;51.444;7.460;2023-04-25T11:22:41;6.47;;;1.38;;
59054;SDS011;44845;51.444;7.460;2023-04-25T11:25:10;5.97;;;1.58;;
59054;SDS011;44845;51.444;7.460;2023-04-25T11:27:38;4.70;;;1.35;;
59054;SDS011;44845;51.444;7.460;2023-04-25T11:30:14;8.20;;;1.10;;
59054;SDS011;44845;51.444;7.460;2023-04-25T11:32:42;5.60;;;1.23;;
59054;SDS011;44845;51.444;7.460;2023-04-25T11:35:09;6.03;;;1.20;;
59054;SDS011;44845;51.444;7.460;2023-04-25T11:37:35;10.43;;;1.92;;
59054;SDS011;44845;51.444;7.460;2023-04-25T11:40:02;5.15;;;1.02;;
59054;SDS011;44845;51.444;7.460;2023-04-25T11:42:27;6.07;;;1.55;;
59054;SDS011;44845;51.444;7.460;2023-04-25T11:44:53;11.13;;;1.20;;
59054;SDS011;44845;51.444;7.460;2023-04-25T11:47:18;4.30;;;1.15;;
59054;SDS011;44845;51.444;7.460;2023-04-25T11:49:44;6.75;;;1.50;;
59054;SDS011;44845;51.444;7.460;2023-04-25T11:52:09;6.10;;;1.23;;
59054;SDS011;44845;51.444;7.460;2023-04-25T11:54:35;6.53;;;1.55;;
59054;SDS011;44845;51.444;7.460;2023-04-25T11:57:01;5.55;;;1.00;;
59054;SDS011;44845;51.444;7.460;2023-04-25T11:59:28;4.75;;;0.95;;
59054;SDS011;44845;51.444;7.460;2023-04-25T12:01:53;6.80;;;1.33;;
59054;SDS011;44845;51.444;7.460;2023-04-25T12:04:22;2.22;;;1.02;;
59054;SDS011;44845;51.444;7.460;2023-04-25T12:06:49;5.50;;;0.88;;
59054;SDS011;44845;51.444;7.460;2023-04-25T12:09:18;3.65;;;1.02;;
59054;SDS011;44845;51.444;7.460;2023-04-25T12:11:54;2.10;;;0.70;;
59054;SDS011;44845;51.444;7.460;2023-04-25T12:14:21;4.93;;;1.00;;
59054;SDS011;44845;51.444;7.460;2023-04-25T12:16:51;3.38;;;0.77;;
59054;SDS011;44845;51.444;7.460;2023-04-25T12:19:19;2.03;;;0.50;;
59054;SDS011;44845;51.444;7.460;2023-04-25T12:21:45;2.53;;;0.60;;
59054;SDS011;44845;51.444;7.460;2023-04-25T12:24:11;3.78;;;0.82;;
59054;SDS011;44845;51.444;7.460;2023-04-25T12:26:49;3.75;;;0.75;;
59054;SDS011;44845;51.444;7.460;2023-04-25T12:29:20;1.98;;;0.60;;
59054;SDS011;44845;51.444;7.460;2023-04-25T12:31:47;5.35;;;0.85;;
59054;SDS011;44845;51.444;7.460;2023-04-25T12:34:13;2.75;;;0.50;;
59054;SDS011;44845;51.444;7.460;2023-04-25T12:36:39;2.13;;;0.50;;
59054;SDS011;44845;51.444;7.460;2023-04-25T12:39:05;3.35;;;0.60;;
59054;SDS011;44845;51.444;7.460;2023-04-25T12:41:31;1.55;;;0.57;;
59054;SDS011;44845;51.444;7.460;2023-04-25T12:43:56;1.77;;;0.50;;
59054;SDS011;44845;51.444;7.460;2023-04-25T12:46:22;2.20;;;0.40;;
59054;SDS011;44845;51.444;7.460;2023-04-25T12:48:50;3.28;;;0.82;;
59054;SDS011;44845;51.444;7.460;2023-04-25T12:51:15;3.92;;;0.63;;
59054;SDS011;44845;51.444;7.460;2023-04-25T12:53:41;1.95;;;0.43;;
59054;SDS011;44845;51.444;7.460;2023-04-25T12:56:06;3.65;;;0.73;;
59054;SDS011;44845;51.444;7.460;2023-04-25T12:58:32;6.70;;;0.65;;
59054;SDS011;44845;51.444;7.460;2023-04-25T13:00:58;4.10;;;0.85;;
59054;SDS011;44845;51.444;7.460;2023-04-25T13:03:24;3.97;;;0.90;;
59054;SDS011;44845;51.444;7.460;2023-04-25T13:05:50;4.00;;;0.95;;
59054;SDS011;44845;51.444;7.460;2023-04-25T13:08:17;2.67;;;0.75;;
59054;SDS011;44845;51.444;7.460;2023-04-25T13:10:43;4.53;;;0.70;;
59054;SDS011;44845;51.444;7.460;2023-04-25T13:13:08;1.98;;;0.52;;
59054;SDS011;44845;51.444;7.460;2023-04-25T13:15:33;6.70;;;0.65;;
59054;SDS011;44845;51.444;7.460;2023-04-25T13:17:59;1.10;;;0.50;;
59054;SDS011;44845;51.444;7.460;2023-04-25T13:20:24;3.42;;;0.73;;
59054;SDS011;44845;51.444;7.460;2023-04-25T13:22:49;3.38;;;0.70;;
59054;SDS011;44845;51.444;7.460;2023-04-25T13:25:15;2.50;;;0.70;;
59054;SDS011;44845;51.444;7.460;2023-04-25T13:27:41;1.67;;;0.70;;
59054;SDS011;44845;51.444;7.460;2023-04-25T13:30:09;2.38;;;0.60;;
59054;SDS011;44845;51.444;7.460;2023-04-25T13:32:35;3.17;;;0.70;;
59054;SDS011;44845;51.444;7.460;2023-04-25T13:35:02;2.70;;;0.85;;
59054;SDS011;44845;51.444;7.460;2023-04-25T13:37:32;3.60;;;0.60;;
59054;SDS011;44845;51.444;7.460;2023-04-25T13:40:01;5.07;;;0.82;;
59054;SDS011;44845;51.444;7.460;2023-04-25T13:42:29;2.70;;;0.98;;
59054;SDS011;44845;51.444;7.460;2023-04-25T13:44:55;2.83;;;0.80;;
59054;SDS011;44845;51.444;7.460;2023-04-25T13:47:20;2.80;;;0.68;;
59054;SDS011;44845;51.444;7.460;2023-04-25T13:49:45;2.65;;;0.75;;
59054;SDS011;44845;51.444;7.460;2023-04-25T13:52:11;3.08;;;0.70;;
59054;SDS011;44845;51.444;7.460;2023-04-25T13:54:36;4.65;;;0.85;;
59054;SDS011;44845;51.444;7.460;2023-04-25T13:57:01;3.83;;;0.70;;
59054;SDS011;44845;51.444;7.460;2023-04-25T13:59:27;2.15;;;0.93;;
59054;SDS011;44845;51.444;7.460;2023-04-25T14:01:52;2.10;;;0.85;;
59054;SDS011;44845;51.444;7.460;2023-04-25T14:04:18;2.78;;;0.77;;
59054;SDS011;44845;51.444;7.460;2023-04-25T14:06:43;5.43;;;1.15;;
59054;SDS011;44845;51.444;7.460;2023-04-25T14:09:09;3.78;;;0.80;;
59054;SDS011;44845;51.444;7.460;2023-04-25T14:11:38;4.85;;;0.98;;
59054;SDS011;44845;51.444;7.460;2023-04-25T14:14:04;4.20;;;0.85;;
59054;SDS011;44845;51.444;7.460;2023-04-25T14:16:30;4.05;;;0.63;;
59054;SDS011;44845;51.444;7.460;2023-04-25T14:18:57;1.73;;;0.90;;
59054;SDS011;44845;51.444;7.460;2023-04-25T14:21:23;5.40;;;0.93;;
59054;SDS011;44845;51.444;7.460;2023-04-25T14:23:48;5.50;;;0.80;;
59054;SDS011;44845;51.444;7.460;2023-04-25T14:26:13;4.85;;;1.20;;
59054;SDS011;44845;51.444;7.460;2023-04-25T14:28:39;3.63;;;0.77;;
59054;SDS011;44845;51.444;7.460;2023-04-25T14:31:04;4.10;;;0.98;;
59054;SDS011;44845;51.444;7.460;2023-04-25T14:33:30;5.40;;;1.10;;
59054;SDS011;44845;51.444;7.460;2023-04-25T14:35:55;3.70;;;0.98;;
59054;SDS011;44845;51.444;7.460;2023-04-25T14:38:21;5.40;;;0.80;;
59054;SDS011;44845;51.444;7.460;2023-04-25T14:40:48;2.88;;;1.00;;